Time;durP1;ratioP1;P1;durP2;ratioP2;P2;SDS_P1;SDS_P2;PMS_P1;PMS_P2;Temp;Humidity;BMP_temperature;BMP_pressure;BME280_temperature;BME280_humidity;BME280_pressure;Samples;Min_cycle;Max_cycle;Signal;HPM_P1;HPM_P2
2023/07/20 00:02:18;;;;;;;18.23;11.38;;;;;;;;;;4947313;28;20224;-69
2023/07/20 00:04:44;;;;;;;15.70;10.68;;;;;;;;;;4974723;28;20212;-69
2023/07/20 00:07:09;;;;;;;17.67;10.48;;;;;;;;;;4949868;28;20197;-69
2023/07/20 00:09:34;;;;;;;20.98;11.40;;;;;;;;;;4947508;28;20188;-69
2023/07/20 00:12:00;;;;;;;20.40;10.57;;;;;;;;;;4947989;28;20219;-70
2023/07/20 00:14:25;;;;;;;12.05;9.20;;;;;;;;;;4948128;28;21070;-68
2023/07/20 00:16:55;;;;;;;13.38;8.77;;;;;;;;;;4947970;28;20571;-69
2023/07/20 00:19:20;;;;;;;9.38;7.75;;;;;;;;;;4947750;28;20274;-69
2023/07/20 00:21:46;;;;;;;13.23;6.75;;;;;;;;;;4945350;28;20218;-69
2023/07/20 00:24:11;;;;;;;12.02;7.95;;;;;;;;;;4944732;28;20220;-69
2023/07/20 00:26:36;;;;;;;9.05;7.28;;;;;;;;;;4947755;28;20851;-69
2023/07/20 00:29:02;;;;;;;11.82;6.55;;;;;;;;;;4947204;28;20215;-69
2023/07/20 00:31:27;;;;;;;8.55;6.55;;;;;;;;;;4950647;28;20233;-69
2023/07/20 00:33:52;;;;;;;10.02;6.20;;;;;;;;;;4961556;23;20722;-75
2023/07/20 00:36:17;;;;;;;8.45;6.10;;;;;;;;;;4956057;28;20188;-75
2023/07/20 00:38:43;;;;;;;8.07;5.80;;;;;;;;;;4956258;28;20180;-75
2023/07/20 00:41:08;;;;;;;8.73;5.85;;;;;;;;;;4951926;28;20724;-75
2023/07/20 00:43:33;;;;;;;6.30;4.95;;;;;;;;;;4952916;28;20208;-75
2023/07/20 00:45:59;;;;;;;7.50;5.25;;;;;;;;;;4954593;28;20248;-75
2023/07/20 00:48:24;;;;;;;6.68;4.50;;;;;;;;;;4955269;28;20188;-75
2023/07/20 00:50:49;;;;;;;7.53;4.72;;;;;;;;;;4974071;28;20195;-75
2023/07/20 00:53:15;;;;;;;5.43;4.68;;;;;;;;;;4948860;28;20672;-75
2023/07/20 00:55:40;;;;;;;6.05;4.88;;;;;;;;;;4948684;28;20628;-75
2023/07/20 00:58:06;;;;;;;8.15;5.25;;;;;;;;;;4954396;28;20274;-76
2023/07/20 01:00:31;;;;;;;4.28;3.85;;;;;;;;;;4953773;28;20747;-75
2023/07/20 01:02:57;;;;;;;5.63;3.75;;;;;;;;;;4952250;28;20339;-76
2023/07/20 01:05:26;;;;;;;6.32;4.18;;;;;;;;;;4947269;28;20750;-74
2023/07/20 01:08:06;;;;;;;4.25;3.58;;;;;;;;;;4950269;28;20824;-75
2023/07/20 01:10:36;;;;;;;4.10;3.47;;;;;;;;;;4966412;28;20200;-75
2023/07/20 01:13:01;;;;;;;3.97;3.58;;;;;;;;;;4958889;28;20184;-75
2023/07/20 01:15:27;;;;;;;3.53;3.15;;;;;;;;;;4955495;28;20196;-75
2023/07/20 01:17:52;;;;;;;5.53;3.58;;;;;;;;;;4957999;28;20191;-75
2023/07/20 01:20:20;;;;;;;5.72;3.65;;;;;;;;;;4959521;28;20192;-75
2023/07/20 01:23:03;;;;;;;4.53;3.42;;;;;;;;;;4960109;28;20211;-74
2023/07/20 01:25:31;;;;;;;4.75;2.97;;;;;;;;;;4954675;28;20678;-75
2023/07/20 01:28:11;;;;;;;5.35;3.72;;;;;;;;;;4948460;28;20192;-75
2023/07/20 01:30:39;;;;;;;4.53;3.40;;;;;;;;;;4953115;28;20254;-74
2023/07/20 01:33:05;;;;;;;4.32;3.78;;;;;;;;;;4953401;28;20294;-74
2023/07/20 01:35:31;;;;;;;4.68;3.70;;;;;;;;;;4954396;28;20204;-74
2023/07/20 01:37:57;;;;;;;3.90;3.47;;;;;;;;;;4957866;28;20181;-74
2023/07/20 01:40:25;;;;;;;5.80;3.63;;;;;;;;;;4958694;28;20287;-74
2023/07/20 01:42:50;;;;;;;5.22;4.10;;;;;;;;;;4959673;28;21000;-74
2023/07/20 01:45:16;;;;;;;5.78;4.28;;;;;;;;;;4958733;28;20914;-75
2023/07/20 01:47:41;;;;;;;4.95;3.85;;;;;;;;;;4957304;28;20264;-74
2023/07/20 01:50:06;;;;;;;5.85;4.95;;;;;;;;;;4959082;28;20270;-75
2023/07/20 01:52:32;;;;;;;6.60;5.30;;;;;;;;;;4966101;28;20196;-74
2023/07/20 01:54:57;;;;;;;6.05;4.85;;;;;;;;;;4957373;28;20600;-75
2023/07/20 01:57:22;;;;;;;7.28;5.30;;;;;;;;;;4956383;28;20239;-73
2023/07/20 01:59:47;;;;;;;9.55;5.53;;;;;;;;;;4959593;28;20278;-74
2023/07/20 02:02:13;;;;;;;7.20;4.72;;;;;;;;;;4955743;28;20216;-74
2023/07/20 02:04:38;;;;;;;6.30;5.00;;;;;;;;;;4954638;28;20223;-74
2023/07/20 02:07:03;;;;;;;5.40;4.32;;;;;;;;;;4953006;28;20195;-75
2023/07/20 02:09:29;;;;;;;6.18;5.00;;;;;;;;;;4954373;28;20253;-74
2023/07/20 02:11:54;;;;;;;7.47;5.80;;;;;;;;;;4954883;28;20181;-73
2023/07/20 02:14:20;;;;;;;9.20;5.47;;;;;;;;;;4955887;28;20295;-75
2023/07/20 02:16:45;;;;;;;5.72;5.15;;;;;;;;;;4957984;28;20177;-74
2023/07/20 02:19:10;;;;;;;7.05;4.65;;;;;;;;;;4956556;28;20238;-74
2023/07/20 02:21:35;;;;;;;7.45;5.38;;;;;;;;;;4953610;28;20279;-74
2023/07/20 02:24:01;;;;;;;7.03;5.22;;;;;;;;;;4960347;28;20690;-74
2023/07/20 02:26:26;;;;;;;7.70;5.38;;;;;;;;;;4957343;28;20191;-74
2023/07/20 02:28:51;;;;;;;7.85;6.03;;;;;;;;;;4960128;28;20751;-74
2023/07/20 02:31:16;;;;;;;7.47;5.32;;;;;;;;;;4956334;28;20323;-74
2023/07/20 02:33:42;;;;;;;10.07;6.35;;;;;;;;;;4957807;28;20346;-74
2023/07/20 02:36:07;;;;;;;10.93;6.78;;;;;;;;;;4957805;28;20223;-74
2023/07/20 02:38:32;;;;;;;10.05;6.43;;;;;;;;;;4958181;28;20971;-74
2023/07/20 02:40:57;;;;;;;8.95;6.97;;;;;;;;;;4957271;28;20192;-74
2023/07/20 02:43:22;;;;;;;12.57;7.43;;;;;;;;;;4954554;28;20291;-74
2023/07/20 02:45:48;;;;;;;10.23;7.90;;;;;;;;;;4958342;28;20176;-74
2023/07/20 02:48:13;;;;;;;10.73;8.07;;;;;;;;;;4958443;28;20180;-74
2023/07/20 02:50:38;;;;;;;8.85;6.85;;;;;;;;;;4955415;28;20180;-74
2023/07/20 02:53:03;;;;;;;10.48;7.65;;;;;;;;;;4954406;28;20184;-74
2023/07/20 02:55:28;;;;;;;8.77;6.68;;;;;;;;;;4955114;28;20219;-74
2023/07/20 02:57:54;;;;;;;8.15;6.22;;;;;;;;;;4955389;28;20642;-76
2023/07/20 03:00:19;;;;;;;9.70;6.70;;;;;;;;;;4965761;28;20816;-75
2023/07/20 03:02:47;;;;;;;9.38;6.70;;;;;;;;;;4952893;28;20953;-76
2023/07/20 03:05:13;;;;;;;10.20;7.10;;;;;;;;;;4956177;28;20238;-75
2023/07/20 03:07:38;;;;;;;8.27;6.15;;;;;;;;;;4961289;28;20278;-76
2023/07/20 03:10:04;;;;;;;8.05;6.15;;;;;;;;;;4953132;28;20184;-76
2023/07/20 03:12:29;;;;;;;8.52;6.28;;;;;;;;;;4950762;28;20192;-75
2023/07/20 03:14:56;;;;;;;9.85;6.85;;;;;;;;;;4951671;28;20238;-75
2023/07/20 03:17:22;;;;;;;10.13;7.05;;;;;;;;;;4956207;28;20298;-75
2023/07/20 03:19:47;;;;;;;10.55;7.43;;;;;;;;;;4956637;28;20674;-76
2023/07/20 03:22:12;;;;;;;10.50;7.20;;;;;;;;;;4949494;28;20208;-75
2023/07/20 03:24:37;;;;;;;9.93;7.90;;;;;;;;;;4948829;28;20623;-76
2023/07/20 03:27:03;;;;;;;9.32;7.10;;;;;;;;;;4951481;28;20192;-75
2023/07/20 03:29:28;;;;;;;10.23;7.65;;;;;;;;;;4955581;28;20257;-75
2023/07/20 03:31:54;;;;;;;9.88;7.70;;;;;;;;;;4954537;28;20192;-76
2023/07/20 03:34:19;;;;;;;10.13;7.88;;;;;;;;;;4955498;28;20477;-75
2023/07/20 03:36:44;;;;;;;10.70;7.57;;;;;;;;;;4957130;28;20184;-75
2023/07/20 03:39:09;;;;;;;11.75;7.82;;;;;;;;;;4958895;28;20180;-75
2023/07/20 03:41:34;;;;;;;13.15;7.80;;;;;;;;;;4956942;28;20251;-76
2023/07/20 03:44:00;;;;;;;9.68;7.38;;;;;;;;;;4959308;28;20242;-75
2023/07/20 03:46:25;;;;;;;8.85;6.80;;;;;;;;;;4954996;28;20221;-75
2023/07/20 03:48:50;;;;;;;10.15;7.22;;;;;;;;;;4955647;28;20548;-76
2023/07/20 03:51:15;;;;;;;11.27;6.97;;;;;;;;;;4953345;28;20191;-75
2023/07/20 03:53:41;;;;;;;9.88;6.88;;;;;;;;;;4953648;28;20203;-75
2023/07/20 03:56:06;;;;;;;11.07;7.90;;;;;;;;;;4956220;28;20231;-75
2023/07/20 03:58:31;;;;;;;10.00;7.60;;;;;;;;;;4955395;28;20354;-74
2023/07/20 04:00:57;;;;;;;8.45;6.88;;;;;;;;;;4956614;28;20494;-75
2023/07/20 04:03:24;;;;;;;10.65;7.55;;;;;;;;;;4955818;28;20205;-74
2023/07/20 04:05:49;;;;;;;10.30;7.80;;;;;;;;;;4952335;28;20188;-74
2023/07/20 04:08:15;;;;;;;9.77;7.20;;;;;;;;;;4954329;28;20196;-75
2023/07/20 04:10:43;;;;;;;9.50;7.30;;;;;;;;;;4955985;28;20195;-74
2023/07/20 04:13:08;;;;;;;9.50;6.93;;;;;;;;;;4954113;28;20319;-74
2023/07/20 04:15:33;;;;;;;10.52;6.53;;;;;;;;;;4956101;28;20195;-74
2023/07/20 04:17:58;;;;;;;8.02;5.75;;;;;;;;;;4959336;28;20272;-75
2023/07/20 04:20:24;;;;;;;7.63;5.95;;;;;;;;;;4956478;28;20651;-74
2023/07/20 04:22:49;;;;;;;7.85;5.35;;;;;;;;;;4955540;28;20208;-75
2023/07/20 04:25:14;;;;;;;7.35;5.93;;;;;;;;;;4951665;28;20736;-75
2023/07/20 04:27:40;;;;;;;5.88;5.13;;;;;;;;;;4972566;28;20436;-76
2023/07/20 04:30:07;;;;;;;7.55;5.97;;;;;;;;;;4955519;28;20181;-75
2023/07/20 04:32:33;;;;;;;7.20;5.32;;;;;;;;;;4957015;28;20199;-75
2023/07/20 04:34:59;;;;;;;7.53;5.80;;;;;;;;;;4952399;28;20237;-74
2023/07/20 04:37:24;;;;;;;8.55;6.30;;;;;;;;;;4952712;28;20192;-75
2023/07/20 04:39:49;;;;;;;5.68;5.05;;;;;;;;;;4950365;28;20267;-75
2023/07/20 04:42:15;;;;;;;5.57;4.80;;;;;;;;;;4950274;28;20263;-75
2023/07/20 04:44:40;;;;;;;5.53;4.75;;;;;;;;;;4957852;28;20212;-75
2023/07/20 04:47:05;;;;;;;6.70;5.57;;;;;;;;;;4959993;28;20218;-75
2023/07/20 04:49:31;;;;;;;6.38;5.30;;;;;;;;;;4959547;28;20674;-75
2023/07/20 04:51:56;;;;;;;7.32;5.55;;;;;;;;;;4953754;28;20244;-75
2023/07/20 04:54:21;;;;;;;5.88;5.20;;;;;;;;;;4959578;28;20250;-75
2023/07/20 04:56:46;;;;;;;5.95;4.47;;;;;;;;;;4955342;28;20188;-74
2023/07/20 04:59:12;;;;;;;6.40;5.53;;;;;;;;;;4961525;28;20195;-74
2023/07/20 05:01:37;;;;;;;5.93;4.65;;;;;;;;;;4955895;28;20240;-74
2023/07/20 05:04:02;;;;;;;6.15;4.82;;;;;;;;;;4958582;28;20295;-74
2023/07/20 05:06:27;;;;;;;5.97;4.82;;;;;;;;;;4957154;28;20274;-75
2023/07/20 05:08:52;;;;;;;5.10;4.50;;;;;;;;;;4958102;28;20239;-74
2023/07/20 05:11:18;;;;;;;4.75;4.22;;;;;;;;;;4958623;28;21100;-75
2023/07/20 05:13:43;;;;;;;5.22;3.80;;;;;;;;;;4949313;28;20208;-74
2023/07/20 05:16:08;;;;;;;4.50;3.95;;;;;;;;;;4954935;28;20180;-75
2023/07/20 05:18:33;;;;;;;5.80;4.38;;;;;;;;;;4961136;28;20203;-75
2023/07/20 05:20:58;;;;;;;5.60;4.82;;;;;;;;;;4958537;28;20496;-75
2023/07/20 05:23:24;;;;;;;5.03;4.07;;;;;;;;;;4960447;28;20839;-75
2023/07/20 05:25:58;;;;;;;4.57;4.10;;;;;;;;;;4956071;28;20663;-75
2023/07/20 05:28:24;;;;;;;4.75;4.05;;;;;;;;;;4958418;28;20223;-75
2023/07/20 05:30:51;;;;;;;4.70;4.30;;;;;;;;;;4957003;28;20677;-75
2023/07/20 05:33:16;;;;;;;5.88;4.05;;;;;;;;;;4956617;28;20239;-75
2023/07/20 05:35:41;;;;;;;4.47;3.60;;;;;;;;;;4956026;28;20193;-75
2023/07/20 05:38:07;;;;;;;4.07;3.70;;;;;;;;;;4956420;28;20193;-75
2023/07/20 05:40:32;;;;;;;4.40;3.92;;;;;;;;;;4953948;28;20303;-75
2023/07/20 05:42:57;;;;;;;4.43;3.80;;;;;;;;;;4956076;28;20212;-75
2023/07/20 05:45:22;;;;;;;5.15;3.78;;;;;;;;;;4954870;28;20295;-74
2023/07/20 05:47:48;;;;;;;4.50;3.47;;;;;;;;;;4957151;28;20180;-73
2023/07/20 05:50:13;;;;;;;6.00;3.78;;;;;;;;;;4954683;28;20665;-74
2023/07/20 05:52:39;;;;;;;3.78;3.20;;;;;;;;;;4955494;28;20602;-73
2023/07/20 05:55:05;;;;;;;4.70;4.22;;;;;;;;;;4949999;28;20786;-73
2023/07/20 05:57:30;;;;;;;4.68;4.22;;;;;;;;;;4955252;28;20247;-74
2023/07/20 05:59:56;;;;;;;3.88;3.47;;;;;;;;;;4970099;28;20199;-74
2023/07/20 06:02:21;;;;;;;5.03;3.15;;;;;;;;;;4938439;28;20204;-74
2023/07/20 06:04:46;;;;;;;4.60;3.17;;;;;;;;;;4950314;28;20212;-73
2023/07/20 06:07:11;;;;;;;4.78;3.40;;;;;;;;;;4950921;28;20239;-74
2023/07/20 06:09:37;;;;;;;3.00;2.70;;;;;;;;;;4952570;28;20184;-73
2023/07/20 06:12:02;;;;;;;6.38;3.15;;;;;;;;;;4950333;28;20689;-73
2023/07/20 06:14:27;;;;;;;3.30;2.75;;;;;;;;;;4952418;28;20227;-73
2023/07/20 06:16:53;;;;;;;4.53;2.88;;;;;;;;;;4952672;28;20188;-74
2023/07/20 06:19:18;;;;;;;3.50;2.60;;;;;;;;;;4947456;28;20657;-74
2023/07/20 06:21:43;;;;;;;3.05;2.67;;;;;;;;;;4950530;28;20702;-73
2023/07/20 06:24:08;;;;;;;4.82;2.95;;;;;;;;;;4950014;28;20286;-73
2023/07/20 06:26:39;;;;;;;2.95;2.33;;;;;;;;;;4950432;28;20190;-72
2023/07/20 06:29:05;;;;;;;2.72;2.08;;;;;;;;;;4950515;28;20796;-72
2023/07/20 06:31:31;;;;;;;2.30;1.98;;;;;;;;;;4951362;28;20229;-72
2023/07/20 06:33:56;;;;;;;3.60;2.10;;;;;;;;;;4972981;23;20233;-68
2023/07/20 06:36:21;;;;;;;3.13;2.50;;;;;;;;;;4929246;28;20197;-67
2023/07/20 06:38:46;;;;;;;3.10;2.30;;;;;;;;;;4927426;28;20555;-67
2023/07/20 06:41:12;;;;;;;2.00;1.60;;;;;;;;;;4929443;28;20210;-67
2023/07/20 06:43:37;;;;;;;3.33;1.88;;;;;;;;;;4928217;28;20197;-67
2023/07/20 06:46:02;;;;;;;2.00;1.77;;;;;;;;;;4928493;29;20243;-67
2023/07/20 06:48:28;;;;;;;2.25;1.60;;;;;;;;;;4925256;29;20196;-67
2023/07/20 06:50:54;;;;;;;3.63;1.52;;;;;;;;;;4929317;28;20273;-67
2023/07/20 06:53:19;;;;;;;1.80;1.50;;;;;;;;;;4927266;28;20248;-67
2023/07/20 06:55:44;;;;;;;1.40;1.00;;;;;;;;;;4927306;29;20316;-67
2023/07/20 06:58:11;;;;;;;1.60;0.88;;;;;;;;;;4927796;29;20221;-68
2023/07/20 07:00:36;;;;;;;0.65;0.40;;;;;;;;;;4928118;28;20316;-67
2023/07/20 07:03:02;;;;;;;0.82;0.52;;;;;;;;;;4923814;29;20616;-67
2023/07/20 07:05:27;;;;;;;0.60;0.60;;;;;;;;;;4923190;29;20629;-68
2023/07/20 07:07:52;;;;;;;1.38;0.57;;;;;;;;;;4925224;29;20192;-68
2023/07/20 07:10:18;;;;;;;2.15;0.60;;;;;;;;;;4921493;28;20197;-68
2023/07/20 07:12:43;;;;;;;2.88;0.82;;;;;;;;;;4921044;29;20193;-67
2023/07/20 07:15:10;;;;;;;1.08;0.38;;;;;;;;;;4924133;29;20205;-68
2023/07/20 07:17:35;;;;;;;1.83;0.40;;;;;;;;;;4925049;28;20192;-68
2023/07/20 07:20:01;;;;;;;0.75;0.63;;;;;;;;;;4923720;29;20273;-66
2023/07/20 07:22:26;;;;;;;1.23;0.60;;;;;;;;;;4922989;28;20221;-66
2023/07/20 07:24:51;;;;;;;1.15;0.60;;;;;;;;;;4922659;29;20297;-67
2023/07/20 07:27:16;;;;;;;0.52;0.50;;;;;;;;;;4924899;29;20181;-68
2023/07/20 07:29:44;;;;;;;0.45;0.38;;;;;;;;;;4919935;28;20215;-66
2023/07/20 07:32:10;;;;;;;1.55;0.60;;;;;;;;;;4923472;28;20189;-66
2023/07/20 07:34:35;;;;;;;0.65;0.40;;;;;;;;;;4924036;28;20239;-67
2023/07/20 07:37:00;;;;;;;0.85;0.50;;;;;;;;;;4924286;28;20582;-67
2023/07/20 07:39:26;;;;;;;1.52;0.40;;;;;;;;;;4923321;28;20566;-67
2023/07/20 07:41:51;;;;;;;0.70;0.50;;;;;;;;;;4922309;29;20245;-67
2023/07/20 07:44:17;;;;;;;0.75;0.50;;;;;;;;;;4925524;28;20287;-67
2023/07/20 07:46:42;;;;;;;1.08;0.30;;;;;;;;;;4926910;28;20576;-67
2023/07/20 07:49:08;;;;;;;2.38;0.50;;;;;;;;;;4927886;28;20190;-67
2023/07/20 07:51:33;;;;;;;1.35;0.38;;;;;;;;;;4922854;29;20189;-67
2023/07/20 07:53:59;;;;;;;0.60;0.30;;;;;;;;;;4912817;29;20218;-68
2023/07/20 07:56:24;;;;;;;0.82;0.40;;;;;;;;;;4914390;29;20859;-65
2023/07/20 07:58:51;;;;;;;0.40;0.30;;;;;;;;;;4928045;28;20194;-67
2023/07/20 08:01:16;;;;;;;1.35;0.40;;;;;;;;;;4913182;29;20213;-67
2023/07/20 08:03:41;;;;;;;1.05;0.40;;;;;;;;;;4910890;28;20260;-66
2023/07/20 08:06:07;;;;;;;0.47;0.30;;;;;;;;;;4912565;29;20177;-67
2023/07/20 08:08:32;;;;;;;0.50;0.47;;;;;;;;;;4912745;29;20249;-67
2023/07/20 08:10:58;;;;;;;1.00;0.50;;;;;;;;;;4911904;29;20189;-67
2023/07/20 08:13:23;;;;;;;0.50;0.50;;;;;;;;;;4910644;28;20381;-67
2023/07/20 08:15:53;;;;;;;1.75;0.60;;;;;;;;;;4914959;29;20200;-66
2023/07/20 08:18:18;;;;;;;1.13;0.30;;;;;;;;;;4918056;28;20181;-67
2023/07/20 08:20:44;;;;;;;0.82;0.45;;;;;;;;;;4917465;29;20707;-67
2023/07/20 08:23:09;;;;;;;1.42;0.47;;;;;;;;;;4917127;29;21310;-66
2023/07/20 08:25:37;;;;;;;0.82;0.47;;;;;;;;;;4920972;29;20209;-66
2023/07/20 08:28:02;;;;;;;0.40;0.40;;;;;;;;;;4921707;28;20184;-67
2023/07/20 08:30:39;;;;;;;2.25;0.60;;;;;;;;;;4919423;28;20856;-67
2023/07/20 08:33:04;;;;;;;1.15;0.40;;;;;;;;;;4919100;28;21344;-71
2023/07/20 08:35:29;;;;;;;0.50;0.50;;;;;;;;;;4917574;29;21103;-71
2023/07/20 08:37:54;;;;;;;0.73;0.50;;;;;;;;;;4919819;28;20430;-70
2023/07/20 08:40:20;;;;;;;0.55;0.47;;;;;;;;;;4919354;28;20240;-71
2023/07/20 08:42:45;;;;;;;0.28;0.22;;;;;;;;;;4916706;29;20303;-71
2023/07/20 08:45:13;;;;;;;2.72;0.47;;;;;;;;;;4918235;28;20209;-71
2023/07/20 08:47:38;;;;;;;0.73;0.43;;;;;;;;;;4920535;29;20193;-71
2023/07/20 08:50:05;;;;;;;1.75;0.50;;;;;;;;;;4918054;29;20188;-69
2023/07/20 08:52:31;;;;;;;0.90;0.68;;;;;;;;;;4916093;29;20196;-70
2023/07/20 08:54:57;;;;;;;1.08;0.60;;;;;;;;;;4915633;29;20216;-71
2023/07/20 08:57:22;;;;;;;1.92;0.80;;;;;;;;;;4919087;29;20351;-70
2023/07/20 08:59:48;;;;;;;1.95;0.50;;;;;;;;;;4918628;29;21020;-70
2023/07/20 09:02:16;;;;;;;0.50;0.50;;;;;;;;;;4918604;28;20630;-70
2023/07/20 09:04:43;;;;;;;0.90;0.70;;;;;;;;;;4917971;29;20212;-72
2023/07/20 09:07:09;;;;;;;1.17;0.60;;;;;;;;;;4920465;28;20223;-69
2023/07/20 09:09:39;;;;;;;1.23;0.60;;;;;;;;;;4916908;28;20189;-69
2023/07/20 09:12:04;;;;;;;0.95;0.80;;;;;;;;;;4931656;28;20338;-69
2023/07/20 09:14:31;;;;;;;0.50;0.50;;;;;;;;;;4919988;28;20652;-71
2023/07/20 09:16:56;;;;;;;0.60;0.60;;;;;;;;;;4917717;29;20189;-69
2023/07/20 09:19:22;;;;;;;0.95;0.60;;;;;;;;;;4916509;29;20216;-70
2023/07/20 09:21:50;;;;;;;1.15;0.40;;;;;;;;;;4918085;28;20260;-71
2023/07/20 09:24:17;;;;;;;1.13;0.50;;;;;;;;;;4915966;28;20209;-71
2023/07/20 09:26:43;;;;;;;1.38;0.50;;;;;;;;;;4918373;29;20181;-71
2023/07/20 09:29:11;;;;;;;2.15;0.70;;;;;;;;;;4932506;28;20196;-69
2023/07/20 09:31:37;;;;;;;2.33;0.93;;;;;;;;;;4914090;29;20918;-70
2023/07/20 09:34:03;;;;;;;0.38;0.38;;;;;;;;;;4913074;28;20256;-69
2023/07/20 09:36:29;;;;;;;0.45;0.30;;;;;;;;;;4914405;29;20189;-69
2023/07/20 09:38:54;;;;;;;1.42;0.90;;;;;;;;;;4929445;28;20201;-70
2023/07/20 09:41:20;;;;;;;1.52;0.40;;;;;;;;;;4914952;29;20214;-68
2023/07/20 09:43:46;;;;;;;1.80;0.50;;;;;;;;;;4914153;29;20312;-69
2023/07/20 09:46:11;;;;;;;1.13;0.50;;;;;;;;;;4915940;28;20176;-70
2023/07/20 09:48:36;;;;;;;0.50;0.50;;;;;;;;;;4915582;29;20808;-69
2023/07/20 09:51:01;;;;;;;0.77;0.68;;;;;;;;;;4915720;28;20979;-69
2023/07/20 09:53:27;;;;;;;2.05;0.85;;;;;;;;;;4914334;29;20299;-68
2023/07/20 09:55:53;;;;;;;1.08;0.80;;;;;;;;;;4919423;29;20224;-71
2023/07/20 09:58:18;;;;;;;0.85;0.47;;;;;;;;;;4917181;28;20832;-70
2023/07/20 10:00:46;;;;;;;2.72;0.55;;;;;;;;;;4915920;29;20283;-69
2023/07/20 10:03:13;;;;;;;0.60;0.52;;;;;;;;;;4914421;29;20223;-70
2023/07/20 10:05:40;;;;;;;0.68;0.65;;;;;;;;;;4914898;29;20215;-70
2023/07/20 10:08:09;;;;;;;1.50;0.40;;;;;;;;;;4923483;29;20664;-71
2023/07/20 10:10:35;;;;;;;3.72;0.70;;;;;;;;;;4931100;28;21654;-71
2023/07/20 10:13:00;;;;;;;2.80;0.60;;;;;;;;;;4931327;29;20193;-71
2023/07/20 10:15:34;;;;;;;1.08;0.75;;;;;;;;;;4931504;29;20247;-71
2023/07/20 10:18:02;;;;;;;1.23;0.60;;;;;;;;;;4932193;29;20280;-71
2023/07/20 10:20:28;;;;;;;0.85;0.65;;;;;;;;;;4930081;28;20220;-71
2023/07/20 10:22:53;;;;;;;1.08;0.82;;;;;;;;;;4931631;28;20208;-71
2023/07/20 10:25:20;;;;;;;0.95;0.50;;;;;;;;;;4929441;28;20217;-71
2023/07/20 10:27:45;;;;;;;0.70;0.50;;;;;;;;;;4931906;28;20190;-71
2023/07/20 10:30:11;;;;;;;0.93;0.43;;;;;;;;;;4931425;28;20181;-71
2023/07/20 10:32:37;;;;;;;0.85;0.35;;;;;;;;;;4930572;29;20181;-70
2023/07/20 10:35:11;;;;;;;0.60;0.57;;;;;;;;;;4929280;28;21017;-71
2023/07/20 10:37:50;;;;;;;1.10;0.60;;;;;;;;;;4931486;28;20670;-70
2023/07/20 10:40:25;;;;;;;0.68;0.68;;;;;;;;;;4923397;29;20204;-71
2023/07/20 10:42:50;;;;;;;0.90;0.68;;;;;;;;;;4914631;29;20209;-70
2023/07/20 10:45:16;;;;;;;1.25;0.80;;;;;;;;;;4914138;28;20225;-70
2023/07/20 10:47:45;;;;;;;1.00;0.47;;;;;;;;;;4913634;29;20186;-70
2023/07/20 10:50:12;;;;;;;1.98;0.60;;;;;;;;;;4913576;29;20193;-70
2023/07/20 10:52:40;;;;;;;1.83;0.70;;;;;;;;;;4913938;29;20224;-70
2023/07/20 10:55:16;;;;;;;2.83;1.23;;;;;;;;;;4913487;28;21862;-70
2023/07/20 10:57:41;;;;;;;0.57;0.57;;;;;;;;;;4917375;28;20189;-70
2023/07/20 11:00:08;;;;;;;0.93;0.68;;;;;;;;;;4910832;29;20730;-70
2023/07/20 11:02:47;;;;;;;1.33;0.88;;;;;;;;;;4913988;29;20268;-70
2023/07/20 11:05:31;;;;;;;2.28;1.00;;;;;;;;;;4912831;29;20296;-70
2023/07/20 11:07:56;;;;;;;1.15;0.93;;;;;;;;;;4914118;29;20216;-71
2023/07/20 11:10:21;;;;;;;0.83;0.70;;;;;;;;;;4912065;29;20196;-69
2023/07/20 11:13:07;;;;;;;1.98;0.90;;;;;;;;;;4910361;29;20434;-70
2023/07/20 11:15:48;;;;;;;1.30;0.63;;;;;;;;;;4915198;28;20225;-69
2023/07/20 11:18:14;;;;;;;1.08;0.98;;;;;;;;;;4911821;29;20925;-70
2023/07/20 11:20:39;;;;;;;1.40;1.30;;;;;;;;;;4913806;28;20701;-70
2023/07/20 11:23:05;;;;;;;1.08;0.95;;;;;;;;;;4912908;29;20969;-69
2023/07/20 11:25:40;;;;;;;0.88;0.70;;;;;;;;;;4912128;29;20240;-71
2023/07/20 11:28:10;;;;;;;1.05;0.68;;;;;;;;;;4912417;29;20201;-70
2023/07/20 11:30:36;;;;;;;1.40;1.00;;;;;;;;;;4914364;29;20181;-70
2023/07/20 11:33:02;;;;;;;1.10;0.80;;;;;;;;;;4909148;28;21453;-71
2023/07/20 11:35:27;;;;;;;1.50;0.80;;;;;;;;;;4911573;28;20228;-71
2023/07/20 11:37:53;;;;;;;2.08;1.00;;;;;;;;;;4914546;29;20185;-71
2023/07/20 11:40:18;;;;;;;1.50;0.52;;;;;;;;;;4910156;28;21919;-71
2023/07/20 11:42:43;;;;;;;1.13;0.80;;;;;;;;;;4911323;28;20684;-70
2023/07/20 11:45:09;;;;;;;2.22;1.20;;;;;;;;;;4910576;29;20206;-71
2023/07/20 11:47:39;;;;;;;1.20;0.57;;;;;;;;;;4913020;28;20296;-70
2023/07/20 11:50:05;;;;;;;1.25;0.70;;;;;;;;;;4911558;28;20188;-71
2023/07/20 11:52:31;;;;;;;0.85;0.68;;;;;;;;;;4910986;29;20199;-71
2023/07/20 11:54:56;;;;;;;1.35;0.50;;;;;;;;;;4911883;29;20277;-70
2023/07/20 11:57:21;;;;;;;3.60;1.10;;;;;;;;;;4915973;28;21787;-70
2023/07/20 12:00:00;;;;;;;1.10;0.60;;;;;;;;;;4913102;28;20189;-70
2023/07/20 12:02:29;;;;;;;0.65;0.63;;;;;;;;;;4910886;29;20639;-71
2023/07/20 12:04:54;;;;;;;0.70;0.70;;;;;;;;;;4911934;28;21212;-71
2023/07/20 12:07:20;;;;;;;1.05;0.80;;;;;;;;;;4911402;29;20335;-71
2023/07/20 12:10:02;;;;;;;2.15;0.70;;;;;;;;;;4911959;28;20189;-71
2023/07/20 12:12:28;;;;;;;0.93;0.70;;;;;;;;;;4910548;29;20197;-70
2023/07/20 12:14:53;;;;;;;1.63;0.90;;;;;;;;;;4913020;29;20760;-71
2023/07/20 12:17:18;;;;;;;1.77;0.60;;;;;;;;;;4911926;29;20247;-70
2023/07/20 12:19:44;;;;;;;0.95;0.70;;;;;;;;;;4911007;28;20438;-69
2023/07/20 12:22:11;;;;;;;1.05;0.40;;;;;;;;;;4909118;29;20679;-70
2023/07/20 12:24:36;;;;;;;1.25;0.80;;;;;;;;;;4909624;29;20324;-69
2023/07/20 12:27:01;;;;;;;1.00;0.90;;;;;;;;;;4912645;28;20182;-70
2023/07/20 12:29:27;;;;;;;1.95;0.77;;;;;;;;;;4912532;29;20431;-70
2023/07/20 12:31:52;;;;;;;0.95;0.85;;;;;;;;;;4911120;29;20270;-70
2023/07/20 12:34:17;;;;;;;2.37;0.83;;;;;;;;;;4934749;23;22246;-76
2023/07/20 12:36:42;;;;;;;1.52;0.50;;;;;;;;;;4953073;28;20425;-77
2023/07/20 12:39:07;;;;;;;0.80;0.70;;;;;;;;;;4953149;28;20192;-77
2023/07/20 12:41:33;;;;;;;3.22;1.20;;;;;;;;;;4955383;28;20461;-77
2023/07/20 12:43:58;;;;;;;1.30;1.17;;;;;;;;;;4956161;28;20211;-78
2023/07/20 12:46:23;;;;;;;1.20;0.98;;;;;;;;;;4940099;28;20364;-77
2023/07/20 12:48:49;;;;;;;2.17;0.82;;;;;;;;;;4939142;28;20196;-77
2023/07/20 12:51:14;;;;;;;1.30;0.93;;;;;;;;;;4934785;28;20204;-78
2023/07/20 12:53:39;;;;;;;1.85;0.88;;;;;;;;;;4938772;28;20432;-78
2023/07/20 12:56:05;;;;;;;1.27;1.15;;;;;;;;;;4941094;28;20248;-78
2023/07/20 12:58:30;;;;;;;0.93;0.93;;;;;;;;;;4941486;28;20780;-77
2023/07/20 13:00:55;;;;;;;0.88;0.70;;;;;;;;;;4941049;28;20188;-77
2023/07/20 13:03:20;;;;;;;1.40;0.70;;;;;;;;;;4938434;28;20295;-78
2023/07/20 13:05:46;;;;;;;0.88;0.88;;;;;;;;;;4943363;28;20898;-78
2023/07/20 13:08:12;;;;;;;1.27;1.08;;;;;;;;;;4945443;28;20176;-78
2023/07/20 13:10:38;;;;;;;1.63;1.35;;;;;;;;;;4963650;28;20177;-77
2023/07/20 13:13:03;;;;;;;0.80;0.73;;;;;;;;;;4961941;28;20668;-79
2023/07/20 13:15:31;;;;;;;2.57;0.70;;;;;;;;;;4961927;28;20207;-79
2023/07/20 13:17:56;;;;;;;0.68;0.65;;;;;;;;;;4951852;28;20430;-79
2023/07/20 13:20:22;;;;;;;2.05;0.70;;;;;;;;;;4954131;28;20202;-79
2023/07/20 13:22:47;;;;;;;0.98;0.77;;;;;;;;;;4951397;28;21417;-79
2023/07/20 13:25:13;;;;;;;1.23;0.82;;;;;;;;;;4954288;28;20217;-80
2023/07/20 13:27:38;;;;;;;1.37;0.73;;;;;;;;;;4961970;28;20196;-78
2023/07/20 13:30:07;;;;;;;0.40;0.40;;;;;;;;;;4956909;28;21254;-79
2023/07/20 13:32:33;;;;;;;1.85;0.77;;;;;;;;;;4955861;28;20193;-77
2023/07/20 13:34:58;;;;;;;0.73;0.73;;;;;;;;;;4953950;28;21083;-78
2023/07/20 13:37:23;;;;;;;2.13;1.20;;;;;;;;;;4947078;28;20192;-79
2023/07/20 13:39:49;;;;;;;0.63;0.63;;;;;;;;;;4952947;28;20223;-78
2023/07/20 13:42:14;;;;;;;1.77;0.80;;;;;;;;;;4951576;28;20270;-78
2023/07/20 13:44:41;;;;;;;1.47;0.70;;;;;;;;;;4947954;28;20331;-77
2023/07/20 13:47:07;;;;;;;2.35;1.05;;;;;;;;;;4965782;28;20572;-78
2023/07/20 13:49:33;;;;;;;1.33;0.90;;;;;;;;;;4949439;28;20180;-78
2023/07/20 13:51:58;;;;;;;1.33;0.68;;;;;;;;;;4949159;28;20199;-78
2023/07/20 13:54:24;;;;;;;0.88;0.88;;;;;;;;;;4940064;28;20251;-78
2023/07/20 13:56:50;;;;;;;1.60;1.02;;;;;;;;;;4948894;28;20212;-78
2023/07/20 13:59:15;;;;;;;2.03;0.80;;;;;;;;;;4949176;28;20199;-79
2023/07/20 14:01:40;;;;;;;2.45;0.90;;;;;;;;;;4955771;28;20655;-79
2023/07/20 14:04:06;;;;;;;1.73;0.80;;;;;;;;;;4956019;28;22448;-78
2023/07/20 14:06:32;;;;;;;1.10;0.80;;;;;;;;;;4953770;28;20258;-79
2023/07/20 14:08:57;;;;;;;1.02;0.80;;;;;;;;;;4956275;28;20197;-79
2023/07/20 14:11:23;;;;;;;0.98;0.50;;;;;;;;;;4955925;28;21361;-79
2023/07/20 14:13:48;;;;;;;1.20;0.90;;;;;;;;;;4952663;28;20288;-79
2023/07/20 14:16:13;;;;;;;2.38;0.82;;;;;;;;;;4965124;28;20196;-79
2023/07/20 14:18:39;;;;;;;0.35;0.30;;;;;;;;;;4960041;28;20256;-78
2023/07/20 14:21:05;;;;;;;0.90;0.80;;;;;;;;;;4949986;28;20180;-76
2023/07/20 14:23:30;;;;;;;1.45;0.90;;;;;;;;;;4944213;28;20608;-77
2023/07/20 14:25:55;;;;;;;0.80;0.60;;;;;;;;;;4948147;28;20231;-78
2023/07/20 14:28:21;;;;;;;1.30;0.80;;;;;;;;;;4946574;28;20848;-77
2023/07/20 14:30:46;;;;;;;2.20;0.95;;;;;;;;;;4947606;28;21518;-78
2023/07/20 14:33:11;;;;;;;0.88;0.50;;;;;;;;;;4947067;28;20180;-78
2023/07/20 14:35:37;;;;;;;4.15;1.75;;;;;;;;;;4951390;28;20224;-79